Time;durP1;ratioP1;P1;durP2;ratioP2;P2;SDS_P1;SDS_P2;PMS_P1;PMS_P2;Temp;Humidity;BMP_temperature;BMP_pressure;BME280_temperature;BME280_humidity;BME280_pressure;Samples;Min_cycle;Max_cycle;Signal;HPM_P1;HPM_P2
2021/12/19 00:00:25;;;;;;;234.85;106.88;;;;;;;7.59;100.00;99198.97;4841982;29;20045;-66
2021/12/19 00:03:57;;;;;;;224.65;105.70;;;;;;;7.49;100.00;99189.69;4846575;29;20133;-66
2021/12/19 00:09:46;;;;;;;217.32;103.82;;;;;;;7.36;100.00;99190.63;4836733;29;20058;-66
2021/12/19 00:12:28;;;;;;;223.00;105.55;;;;;;;7.39;100.00;99198.31;4829426;29;20053;-66
2021/12/19 00:15:16;;;;;;;227.70;106.65;;;;;;;7.11;100.00;99195.97;4840192;29;20041;-66
2021/12/19 00:17:58;;;;;;;227.23;105.30;;;;;;;7.09;100.00;99202.00;4842932;29;20050;-66
2021/12/19 00:20:47;;;;;;;233.35;106.97;;;;;;;7.21;100.00;99212.13;4838700;29;20126;-64
2021/12/19 00:23:52;;;;;;;228.80;106.82;;;;;;;7.19;100.00;99217.25;4835595;29;20060;-64
2021/12/19 00:26:41;;;;;;;234.32;105.70;;;;;;;6.96;100.00;99225.97;4836111;29;20163;-67
2021/12/19 00:29:22;;;;;;;221.65;106.63;;;;;;;7.18;100.00;99225.78;4837006;29;20064;-66
2021/12/19 00:32:12;;;;;;;231.73;106.55;;;;;;;6.90;100.00;99235.41;4826924;29;20665;-65
2021/12/19 00:34:53;;;;;;;239.75;107.18;;;;;;;6.93;100.00;99247.34;4830523;29;20072;-66
2021/12/19 00:37:42;;;;;;;213.88;104.22;;;;;;;7.04;100.00;99254.94;4831108;29;20057;-67
2021/12/19 00:40:23;;;;;;;228.57;107.40;;;;;;;6.82;100.00;99261.91;4829276;29;20173;-66
2021/12/19 00:43:24;;;;;;;229.65;103.57;;;;;;;6.81;100.00;99263.63;4842172;29;20533;-67
2021/12/19 00:46:07;;;;;;;229.43;108.57;;;;;;;6.69;100.00;99275.66;4841368;29;20049;-66
2021/12/19 00:48:59;;;;;;;227.57;107.20;;;;;;;6.65;100.00;99282.47;4833726;29;20079;-66
2021/12/19 00:51:42;;;;;;;254.00;112.32;;;;;;;6.72;100.00;99283.28;4832109;29;20045;-66
2021/12/19 00:54:31;;;;;;;284.35;116.82;;;;;;;6.99;100.00;99287.44;4829978;29;20054;-65
2021/12/19 00:57:12;;;;;;;271.63;116.05;;;;;;;6.83;100.00;99292.63;4836444;29;20050;-66
2021/12/19 01:00:01;;;;;;;290.40;117.82;;;;;;;7.20;100.00;99293.25;4828565;29;20045;-65
2021/12/19 01:02:44;;;;;;;285.88;117.80;;;;;;;7.23;100.00;99292.41;4829359;29;20046;-66
2021/12/19 01:05:37;;;;;;;269.10;119.22;;;;;;;7.13;100.00;99303.56;4831331;29;20074;-66
2021/12/19 01:08:19;;;;;;;273.30;115.78;;;;;;;7.30;100.00;99294.91;4852233;29;20042;-66
2021/12/19 01:11:06;;;;;;;261.05;116.05;;;;;;;7.34;100.00;99295.75;4832963;29;20532;-66
2021/12/19 01:13:48;;;;;;;272.45;118.80;;;;;;;7.20;100.00;99298.38;4827189;29;20050;-66
2021/12/19 01:16:38;;;;;;;267.38;118.57;;;;;;;7.21;100.00;99304.34;4833633;29;20498;-67
2021/12/19 01:19:22;;;;;;;269.90;113.00;;;;;;;7.21;100.00;99304.34;4834628;29;20049;-68
2021/12/19 01:22:11;;;;;;;267.02;116.63;;;;;;;7.24;100.00;99310.31;4829745;29;20125;-66
2021/12/19 01:24:53;;;;;;;268.98;119.78;;;;;;;7.36;100.00;99308.53;4830003;29;20145;-66
2021/12/19 01:27:42;;;;;;;256.27;115.85;;;;;;;7.29;100.00;99308.56;4831207;29;20064;-66
2021/12/19 01:30:32;;;;;;;285.48;120.50;;;;;;;7.24;100.00;99304.34;4827575;29;20058;-66
2021/12/19 01:33:19;;;;;;;250.00;115.78;;;;;;;7.02;100.00;99307.91;4830499;29;20058;-66
2021/12/19 01:36:08;;;;;;;255.13;118.88;;;;;;;7.10;100.00;99306.16;4828152;29;20055;-66
2021/12/19 01:38:56;;;;;;;274.90;119.82;;;;;;;6.87;100.00;99313.94;4827571;29;20061;-66
2021/12/19 01:41:57;;;;;;;248.85;114.13;;;;;;;6.84;100.00;99314.81;4855325;29;20042;-66
2021/12/19 01:44:33;;;;;;;244.35;115.05;;;;;;;6.84;100.00;99313.97;4840555;29;20073;-67
2021/12/19 01:47:28;;;;;;;244.40;113.88;;;;;;;6.69;100.00;99316.59;4830777;29;20050;-67
2021/12/19 01:50:05;;;;;;;264.58;117.47;;;;;;;6.58;100.00;99310.66;4822578;29;20133;-67
2021/12/19 01:52:53;;;;;;;;;;;;;;;6.62;100.00;99320.91;4835739;29;20054;-67
2021/12/19 01:55:34;;;;;;;255.70;114.80;;;;;;;6.65;100.00;99323.44;4829345;29;19928;-66
2021/12/19 01:58:24;;;;;;;267.63;118.72;;;;;;;6.79;100.00;99331.03;4827442;29;20050;-67
2021/12/19 02:01:12;;;;;;;265.10;120.50;;;;;;;6.63;100.00;99325.13;4826881;29;20064;-66
2021/12/19 02:04:00;;;;;;;252.75;122.55;;;;;;;6.64;100.00;99338.78;4832345;29;20058;-69
2021/12/19 02:06:42;;;;;;;276.92;125.00;;;;;;;6.57;100.00;99342.22;4826845;29;20424;-67
2021/12/19 02:09:31;;;;;;;269.65;122.43;;;;;;;6.65;100.00;99343.91;4827764;29;20058;-67
2021/12/19 02:12:19;;;;;;;279.42;125.97;;;;;;;6.75;100.00;99342.19;4834136;29;21449;-66
2021/12/19 02:15:09;;;;;;;274.80;126.82;;;;;;;6.70;100.00;99351.59;4832402;29;20109;-66
2021/12/19 02:18:03;;;;;;;275.48;128.95;;;;;;;6.83;100.00;99348.13;4830591;29;20045;-67
2021/12/19 02:20:51;;;;;;;269.92;127.47;;;;;;;6.68;100.00;99353.31;4831468;29;20530;-66
2021/12/19 02:23:39;;;;;;;284.73;130.55;;;;;;;6.70;100.00;99351.59;4828544;29;20129;-66
2021/12/19 02:26:28;;;;;;;268.33;127.53;;;;;;;6.91;100.00;99342.09;4826998;29;20082;-66
2021/12/19 02:29:17;;;;;;;268.63;123.22;;;;;;;6.74;100.00;99345.59;4829175;29;20110;-66
2021/12/19 02:32:12;;;;;;;281.30;128.32;;;;;;;6.84;100.00;99345.56;4828885;29;20137;-67
2021/12/19 02:34:49;;;;;;;295.90;131.70;;;;;;;7.10;100.00;99335.19;4827520;29;20111;-66
2021/12/19 02:50:23;;;;;;;307.15;144.48;;;;;;;6.97;100.00;99363.41;4835080;29;20050;-67
2021/12/19 02:53:20;;;;;;;323.48;143.68;;;;;;;7.10;100.00;99371.06;4837166;29;20065;-70
2021/12/19 02:55:55;;;;;;;331.83;149.20;;;;;;;7.14;100.00;99370.16;4828289;29;20062;-67
2021/12/19 02:58:51;;;;;;;328.37;150.13;;;;;;;7.49;100.00;99381.94;4820941;29;20123;-67
2021/12/19 03:01:27;;;;;;;321.17;144.63;;;;;;;7.61;100.00;99377.56;4848311;29;20054;-67
2021/12/19 03:04:15;;;;;;;318.80;146.13;;;;;;;7.85;100.00;99386.78;4839152;29;20064;-66
2021/12/19 03:07:05;;;;;;;309.67;142.18;;;;;;;7.84;100.00;99403.03;4839198;29;20114;-66
2021/12/19 03:11:01;;;;;;;309.40;142.57;;;;;;;8.07;100.00;99413.97;4836443;29;20145;-67
2021/12/19 03:19:12;;;;;;;281.58;129.57;;;;;;;9.53;100.00;99411.50;4838245;29;20386;-67
2021/12/19 03:22:05;;;;;;;281.95;129.63;;;;;;;10.08;100.00;99420.97;4839019;29;20553;-67
2021/12/19 03:24:41;;;;;;;240.07;117.80;;;;;;;10.56;100.00;99419.31;4838013;29;20068;-68
2021/12/19 03:27:30;;;;;;;241.60;121.75;;;;;;;11.28;100.00;99413.59;4841764;29;20054;-67
2021/12/19 03:30:12;;;;;;;229.27;114.43;;;;;;;11.69;98.25;99416.13;4835188;29;20077;-67
2021/12/19 03:33:09;;;;;;;222.55;116.15;;;;;;;12.40;92.99;99426.50;4838644;29;20050;-67
2021/12/19 03:35:45;;;;;;;221.48;107.43;;;;;;;12.99;86.83;99424.06;4837697;29;20073;-65
2021/12/19 03:38:43;;;;;;;228.43;113.07;;;;;;;13.28;84.49;99426.69;4842300;29;20068;-65
2021/12/19 03:41:22;;;;;;;210.07;108.47;;;;;;;13.58;82.44;99439.63;4856214;29;20084;-64
2021/12/19 03:44:09;;;;;;;210.18;103.97;;;;;;;13.95;76.91;99441.94;4849374;29;20482;-65
2021/12/19 03:46:51;;;;;;;191.82;101.15;;;;;;;14.22;74.49;99450.56;4854853;29;20471;-65
2021/12/19 03:49:40;;;;;;;192.88;101.50;;;;;;;14.39;75.49;99456.94;4853528;29;20065;-65
2021/12/19 03:52:21;;;;;;;202.32;104.88;;;;;;;14.48;73.06;99458.38;4819732;29;20050;-65
2021/12/19 03:55:11;;;;;;;206.55;104.88;;;;;;;14.29;72.22;99455.50;4821082;29;20786;-68
2021/12/19 03:57:52;;;;;;;221.10;109.28;;;;;;;14.53;71.07;99466.81;4840408;29;20062;-65
2021/12/19 04:00:43;;;;;;;196.35;104.47;;;;;;;14.78;70.93;99462.50;4850274;29;20060;-65
2021/12/19 04:03:32;;;;;;;207.20;108.45;;;;;;;15.14;68.12;99477.69;4839334;29;20121;-65
2021/12/19 04:06:21;;;;;;;197.32;106.13;;;;;;;14.92;69.85;99488.00;4842636;29;20057;-65
2021/12/19 04:09:09;;;;;;;201.07;107.07;;;;;;;15.28;68.66;99480.63;4841821;29;20050;-65
2021/12/19 04:11:55;;;;;;;200.73;103.40;;;;;;;15.71;66.72;99481.69;4841934;29;20058;-65
2021/12/19 04:14:43;;;;;;;181.20;98.13;;;;;;;15.55;66.53;99490.06;4837149;29;20062;-64
2021/12/19 04:17:25;;;;;;;181.18;93.93;;;;;;;15.83;65.00;99483.81;4837014;29;20058;-66
2021/12/19 04:20:18;;;;;;;167.77;85.88;;;;;;;16.09;61.31;99494.03;4839086;29;20058;-66
2021/12/19 04:22:59;;;;;;;154.77;81.57;;;;;;;16.59;59.62;99491.16;4837312;29;20165;-66
2021/12/19 04:25:50;;;;;;;135.73;73.80;;;;;;;16.53;56.84;99499.19;4837291;29;20113;-65
2021/12/19 04:28:31;;;;;;;148.40;75.95;;;;;;;16.43;54.24;99499.59;4835561;29;20053;-65
2021/12/19 04:31:21;;;;;;;126.85;67.57;;;;;;;16.84;54.57;99503.09;4836655;29;20054;-65
2021/12/19 04:34:08;;;;;;;120.25;63.85;;;;;;;16.65;53.69;99503.94;4836200;29;20057;-66
2021/12/19 04:37:12;;;;;;;116.68;61.13;;;;;;;16.83;53.23;99511.00;4836466;29;20073;-66
2021/12/19 04:40:12;;;;;;;124.60;59.33;;;;;;;16.81;51.81;99510.19;4837690;29;20554;-66
2021/12/19 05:00:47;;;;;;;118.90;58.85;;;;;;;16.47;51.90;99523.72;4827593;29;20046;-68
2021/12/19 05:04:09;;;;;;;114.90;57.30;;;;;;;16.19;51.70;99529.19;4828972;29;20110;-68
2021/12/19 05:15:32;;;;;;;115.55;54.15;;;;;;;16.33;51.59;99533.81;4833538;29;20056;-66
2021/12/19 05:18:24;;;;;;;120.60;54.15;;;;;;;16.64;51.50;99531.72;4834170;29;20061;-66
2021/12/19 05:21:15;;;;;;;116.35;57.17;;;;;;;16.72;50.71;99531.41;4828854;29;20070;-64
2021/12/19 05:24:20;;;;;;;110.80;54.35;;;;;;;16.83;49.24;99524.00;4833037;29;20084;-66
2021/12/19 05:27:06;;;;;;;110.22;53.38;;;;;;;16.53;49.69;99522.59;4842000;29;20118;-66
2021/12/19 05:29:54;;;;;;;108.22;52.08;;;;;;;16.58;47.60;99521.53;4851389;29;20057;-65
2021/12/19 05:32:44;;;;;;;96.88;50.28;;;;;;;16.60;48.07;99524.06;4836704;29;20065;-66
2021/12/19 05:35:57;;;;;;;;;;;;;;;16.46;48.66;99522.88;4834525;29;20137;-66
2021/12/19 05:47:39;;;;;;;115.90;48.97;;;;;;;16.68;48.09;99529.84;4836569;29;20077;-67
2021/12/19 05:50:28;;;;;;;98.50;48.33;;;;;;;16.95;46.81;99523.47;4842038;29;20065;-66
2021/12/19 05:53:11;;;;;;;100.00;48.47;;;;;;;16.49;47.82;99521.91;4840463;29;20069;-66
2021/12/19 05:55:59;;;;;;;105.60;51.45;;;;;;;16.44;48.08;99524.66;4848583;29;20122;-66
2021/12/19 05:58:41;;;;;;;97.93;51.53;;;;;;;16.24;49.61;99527.22;4820139;29;20146;-66
2021/12/19 06:01:33;;;;;;;106.53;52.78;;;;;;;16.94;50.28;99526.97;4836239;29;20064;-66
2021/12/19 06:04:14;;;;;;;100.93;56.20;;;;;;;17.11;51.54;99521.91;4838577;29;20050;-65
2021/12/19 06:07:03;;;;;;;117.35;57.05;;;;;;;16.82;49.37;99517.94;4840706;29;20054;-67
2021/12/19 06:09:45;;;;;;;125.15;61.15;;;;;;;16.50;50.76;99520.16;4834816;29;20061;-66
2021/12/19 06:12:41;;;;;;;125.35;64.80;;;;;;;16.44;51.56;99519.47;4816920;29;20771;-67
2021/12/19 06:15:17;;;;;;;131.95;65.35;;;;;;;16.70;49.92;99522.81;4835594;29;20585;-67
2021/12/19 06:18:05;;;;;;;129.63;63.17;;;;;;;17.15;49.18;99515.66;4861247;29;20062;-67
2021/12/19 06:20:47;;;;;;;136.95;71.13;;;;;;;16.59;52.36;99504.16;4834417;29;20053;-68
2021/12/19 06:23:36;;;;;;;138.32;75.95;;;;;;;16.98;51.63;99505.13;4834960;29;20106;-68
2021/12/19 06:26:19;;;;;;;;;;;;;;;16.87;51.77;99504.72;4842435;29;20060;-67
2021/12/19 06:29:09;;;;;;;143.48;74.78;;;;;;;16.82;53.23;99514.50;4833395;29;19970;-66
2021/12/19 06:31:51;;;;;;;136.43;72.35;;;;;;;17.15;52.58;99518.28;4832800;29;20157;-66
2021/12/19 06:34:47;;;;;;;125.80;64.30;;;;;;;16.97;50.11;99511.25;4822451;29;20061;-65
2021/12/19 06:37:38;;;;;;;128.07;62.50;;;;;;;17.23;52.93;99499.72;4829321;29;20057;-64
2021/12/19 06:40:35;;;;;;;135.52;63.33;;;;;;;17.28;50.84;99496.88;4833910;29;21515;-65
2021/12/19 06:43:10;;;;;;;131.75;62.50;;;;;;;17.64;49.74;99492.66;4842012;29;20081;-66
2021/12/19 06:45:58;;;;;;;121.10;60.25;;;;;;;17.35;49.04;99490.50;4842662;29;20170;-66
2021/12/19 06:48:42;;;;;;;115.10;58.22;;;;;;;17.35;52.52;99477.47;4842949;29;20115;-65
2021/12/19 06:51:32;;;;;;;109.90;55.28;;;;;;;17.20;48.96;99479.84;4838797;29;20050;-66
2021/12/19 06:54:13;;;;;;;116.80;53.40;;;;;;;17.10;49.54;99465.53;4836724;29;20175;-64
2021/12/19 06:57:03;;;;;;;106.55;53.25;;;;;;;17.06;47.46;99463.16;4837196;29;20050;-65
2021/12/19 06:59:51;;;;;;;106.03;50.65;;;;;;;17.03;46.68;99466.72;4838754;29;20431;-64
2021/12/19 07:02:34;;;;;;;102.90;52.78;;;;;;;17.42;48.26;99463.25;4834280;29;20058;-65
2021/12/19 07:05:22;;;;;;;107.40;52.22;;;;;;;17.35;45.87;99456.63;4835805;29;20053;-64
2021/12/19 07:08:04;;;;;;;110.03;52.53;;;;;;;17.25;48.12;99450.13;4825638;29;20134;-65
2021/12/19 07:10:53;;;;;;;99.07;49.30;;;;;;;17.48;47.96;99447.38;4824743;29;20058;-65
2021/12/19 07:13:35;;;;;;;105.85;51.00;;;;;;;17.62;45.68;99449.34;4835125;29;20436;-64
2021/12/19 07:16:24;;;;;;;103.03;50.95;;;;;;;17.69;44.02;99446.41;4851336;29;20045;-63
2021/12/19 07:19:05;;;;;;;96.88;49.28;;;;;;;17.64;43.95;99440.53;4854868;29;20061;-64
2021/12/19 07:21:57;;;;;;;98.90;48.63;;;;;;;17.55;45.52;99443.56;4828945;29;20093;-63
2021/12/19 07:24:40;;;;;;;103.85;48.35;;;;;;;17.61;45.04;99443.28;4852900;29;20060;-62
2021/12/19 07:27:30;;;;;;;111.15;49.95;;;;;;;17.60;44.53;99431.16;4849398;29;20053;-64
2021/12/19 07:30:13;;;;;;;98.25;48.15;;;;;;;17.38;46.91;99431.31;4846529;29;20053;-63
2021/12/19 07:33:03;;;;;;;98.57;50.30;;;;;;;17.37;46.19;99431.38;4844463;29;20118;-64
2021/12/19 07:35:48;;;;;;;92.50;48.50;;;;;;;17.37;44.39;99420.94;4838072;29;20057;-65
2021/12/19 07:38:57;;;;;;;114.65;47.17;;;;;;;17.44;46.34;99401.50;4838547;29;20061;-64
2021/12/19 07:41:46;;;;;;;98.80;48.30;;;;;;;17.38;46.43;99396.59;4836118;29;20430;-65
2021/12/19 07:44:35;;;;;;;108.63;48.40;;;;;;;17.21;46.76;99395.59;4833593;29;20494;-62
2021/12/19 07:47:17;;;;;;;87.05;44.47;;;;;;;17.38;47.51;99384.41;4847010;29;20149;-66
2021/12/19 07:50:05;;;;;;;93.22;47.03;;;;;;;17.29;47.62;99386.59;4857641;29;20456;-62
2021/12/19 07:52:47;;;;;;;110.00;49.35;;;;;;;16.96;46.99;99397.63;4840871;29;20050;-64
2021/12/19 07:55:38;;;;;;;99.30;45.40;;;;;;;17.01;46.98;99395.66;4844556;29;20057;-64
2021/12/19 07:58:19;;;;;;;93.78;46.70;;;;;;;17.18;45.42;99398.34;4837007;29;20130;-63
2021/12/19 08:01:08;;;;;;;96.05;52.08;;;;;;;17.47;47.02;99396.16;4840457;29;20587;-65
2021/12/19 08:03:57;;;;;;;112.22;53.30;;;;;;;17.44;47.00;99386.72;4831883;29;20146;-64
2021/12/19 08:06:46;;;;;;;106.78;54.47;;;;;;;17.42;46.47;99372.06;4835837;29;20054;-65
2021/12/19 08:09:56;;;;;;;113.90;53.47;;;;;;;17.55;47.36;99370.59;4836489;29;20058;-64
2021/12/19 08:12:44;;;;;;;117.47;53.42;;;;;;;17.43;46.33;99363.34;4819587;29;20046;-64
2021/12/19 08:15:27;;;;;;;114.15;53.92;;;;;;;17.46;46.19;99358.00;4835393;29;20050;-64
2021/12/19 08:18:16;;;;;;;111.68;56.80;;;;;;;17.41;46.22;99358.22;4837160;29;20062;-62
2021/12/19 08:20:58;;;;;;;104.60;54.45;;;;;;;17.55;46.69;99360.19;4830965;29;20041;-62
2021/12/19 08:23:46;;;;;;;115.40;55.47;;;;;;;17.64;46.50;99349.31;4829451;29;20054;-63
2021/12/19 08:26:31;;;;;;;109.88;54.83;;;;;;;17.55;46.67;99352.38;4832831;29;20121;-65
2021/12/19 08:29:22;;;;;;;106.15;58.13;;;;;;;17.53;47.31;99355.03;4837301;29;20118;-65
2021/12/19 08:32:10;;;;;;;116.28;58.17;;;;;;;17.49;47.50;99357.84;4843682;29;20045;-64
2021/12/19 08:34:53;;;;;;;119.07;59.15;;;;;;;17.51;46.37;99363.84;4846307;29;20088;-65
2021/12/19 08:37:48;;;;;;;119.28;57.30;;;;;;;17.41;46.17;99354.75;4855755;29;20382;-64
2021/12/19 08:40:37;;;;;;;121.85;58.83;;;;;;;17.51;47.10;99350.81;4845225;29;20058;-64
2021/12/19 08:43:26;;;;;;;121.85;58.22;;;;;;;17.54;46.14;99350.69;4840943;29;20336;-64
2021/12/19 08:46:11;;;;;;;115.25;57.45;;;;;;;17.56;47.10;99357.47;4838776;29;20046;-67
2021/12/19 08:49:01;;;;;;;113.38;60.10;;;;;;;17.57;48.04;99347.91;4833505;29;20045;-65
2021/12/19 08:51:42;;;;;;;116.75;54.47;;;;;;;17.34;46.19;99340.34;4848260;29;20057;-64
2021/12/19 08:54:31;;;;;;;104.82;55.47;;;;;;;17.29;47.11;99337.97;4837465;29;20053;-64
2021/12/19 08:57:14;;;;;;;119.78;57.20;;;;;;;17.07;47.70;99327.69;4835890;29;21959;-65
2021/12/19 09:00:03;;;;;;;119.63;54.45;;;;;;;17.16;47.96;99327.25;4845045;29;20053;-62
2021/12/19 09:02:58;;;;;;;111.63;56.08;;;;;;;17.24;48.36;99320.88;4835724;29;20053;-64
2021/12/19 09:05:34;;;;;;;108.15;54.28;;;;;;;17.18;47.49;99315.00;4847804;29;20058;-64
2021/12/19 09:08:25;;;;;;;111.97;55.30;;;;;;;17.24;47.21;99319.09;4833280;29;20677;-64
2021/12/19 09:11:07;;;;;;;105.80;51.75;;;;;;;17.28;46.93;99322.41;4836164;29;20074;-64
2021/12/19 09:13:55;;;;;;;111.00;50.22;;;;;;;17.31;47.17;99315.31;4839982;29;20045;-64
2021/12/19 09:16:49;;;;;;;;;;;;;;;17.35;47.52;99318.59;4854394;29;20137;-64
2021/12/19 09:19:31;;;;;;;111.68;52.95;;;;;;;17.38;46.76;99315.84;4832605;29;19924;-63
2021/12/19 09:22:21;;;;;;;117.00;55.42;;;;;;;17.37;47.74;99314.16;4832775;29;20152;-63
2021/12/19 09:25:21;;;;;;;104.88;52.55;;;;;;;17.42;48.14;99306.97;4828951;29;20386;-62
2021/12/19 09:28:11;;;;;;;108.93;53.90;;;;;;;17.26;47.73;99300.78;4841639;29;20061;-64
2021/12/19 09:30:53;;;;;;;127.18;54.40;;;;;;;17.17;47.33;99287.28;4841156;29;20068;-64
2021/12/19 09:33:42;;;;;;;114.18;54.92;;;;;;;17.16;47.36;99290.81;4848578;29;20178;-64
2021/12/19 09:36:24;;;;;;;114.00;54.25;;;;;;;17.23;47.47;99282.72;4831041;29;20062;-65
2021/12/19 09:39:21;;;;;;;101.80;52.55;;;;;;;17.28;47.42;99267.72;4834373;29;20452;-64
2021/12/19 09:42:10;;;;;;;108.15;54.10;;;;;;;17.18;46.38;99273.34;4838970;29;20136;-65
2021/12/19 09:45:01;;;;;;;103.72;52.05;;;;;;;17.33;47.15;99269.16;4841326;29;20060;-64
2021/12/19 09:47:42;;;;;;;108.72;50.53;;;;;;;17.35;46.57;99271.72;4844253;29;20480;-63
2021/12/19 09:50:31;;;;;;;103.90;53.58;;;;;;;17.25;48.29;99273.91;4847673;29;20054;-65
2021/12/19 09:53:13;;;;;;;104.63;51.08;;;;;;;17.22;47.22;99284.47;4847283;29;20053;-65
2021/12/19 09:56:03;;;;;;;111.07;53.25;;;;;;;17.07;48.31;99287.81;4852202;29;20122;-65
2021/12/19 09:58:46;;;;;;;121.57;56.38;;;;;;;17.04;49.52;99275.75;4839454;29;20335;-65
2021/12/19 10:01:34;;;;;;;113.18;55.83;;;;;;;17.00;51.98;99273.38;4844778;29;20049;-64
2021/12/19 10:04:40;;;;;;;104.28;54.50;;;;;;;16.83;49.25;99279.38;4841203;29;20056;-65
2021/12/19 10:07:30;;;;;;;122.25;55.55;;;;;;;16.92;51.19;99273.72;4852707;29;20045;-64
2021/12/19 10:10:26;;;;;;;111.63;54.40;;;;;;;16.95;48.84;99278.78;4819932;29;20046;-64
2021/12/19 10:13:07;;;;;;;116.90;53.53;;;;;;;17.08;50.10;99279.09;4831899;29;20161;-64
2021/12/19 10:16:02;;;;;;;105.05;53.25;;;;;;;16.98;49.23;99280.41;4837675;29;20053;-64
2021/12/19 10:18:53;;;;;;;130.32;54.47;;;;;;;17.07;51.96;99285.19;4832846;29;20148;-64
2021/12/19 10:21:43;;;;;;;120.13;54.50;;;;;;;16.97;53.84;99281.34;4833625;29;20547;-63
2021/12/19 10:24:35;;;;;;;97.53;50.75;;;;;;;16.90;51.84;99282.53;4842530;29;20541;-64
2021/12/19 10:27:51;;;;;;;104.40;49.92;;;;;;;16.95;52.44;99281.41;4840784;29;20718;-64
2021/12/19 10:30:46;;;;;;;117.70;50.65;;;;;;;16.90;53.21;99275.56;4838644;29;20050;-63
2021/12/19 10:33:31;;;;;;;127.03;52.17;;;;;;;16.86;53.65;99281.81;4842938;29;20061;-65
2021/12/19 10:36:19;;;;;;;107.00;50.33;;;;;;;16.86;52.84;99274.00;4498418;29;10000362;-64
2021/12/19 10:39:46;;;;;;;112.25;52.03;;;;;;;16.76;50.80;99275.38;4831754;29;20136;-64
2021/12/19 10:42:56;;;;;;;114.30;51.45;;;;;;;16.73;50.63;99273.75;4836102;29;20148;-65
2021/12/19 10:45:42;;;;;;;115.38;48.03;;;;;;;16.82;49.51;99285.50;4830887;29;20399;-64
2021/12/19 10:48:34;;;;;;;99.57;51.07;;;;;;;16.87;49.81;99304.31;4818151;29;20058;-63
2021/12/19 10:51:26;;;;;;;109.00;52.47;;;;;;;16.76;48.94;99280.56;4840732;29;20537;-63
2021/12/19 10:54:10;;;;;;;122.50;51.20;;;;;;;16.74;51.12;99277.19;4833019;29;20142;-65
2021/12/19 10:57:21;;;;;;;100.43;48.83;;;;;;;16.67;51.75;99281.81;4837391;29;20486;-63
2021/12/19 11:00:24;;;;;;;113.75;49.95;;;;;;;16.51;52.49;99285.16;4834568;29;20151;-61
2021/12/19 11:03:24;;;;;;;108.47;48.03;;;;;;;16.54;52.03;99285.00;4849262;29;20382;-63
2021/12/19 11:06:33;;;;;;;126.40;50.08;;;;;;;16.45;53.90;99265.44;4829094;29;20137;-63
2021/12/19 11:09:28;;;;;;;126.70;49.78;;;;;;;16.48;58.93;99264.47;4840495;29;20056;-63
2021/12/19 11:12:11;;;;;;;110.95;48.58;;;;;;;16.34;59.35;99255.53;4841626;29;20045;-63
2021/12/19 11:15:04;;;;;;;106.78;51.38;;;;;;;16.25;58.87;99249.88;4840590;29;20129;-64
2021/12/19 11:17:48;;;;;;;135.52;53.53;;;;;;;16.19;56.98;99243.22;4844806;29;20046;-63
2021/12/19 11:20:38;;;;;;;115.03;50.40;;;;;;;16.14;60.99;99252.09;4846203;29;21371;-64
2021/12/19 11:23:21;;;;;;;107.72;52.13;;;;;;;16.06;65.20;99257.63;4837646;29;20157;-63
2021/12/19 11:26:14;;;;;;;124.55;53.85;;;;;;;15.98;65.76;99268.34;4834765;29;20459;-65
2021/12/19 11:28:57;;;;;;;114.78;54.63;;;;;;;15.78;66.44;99277.91;4836288;29;20054;-64
2021/12/19 11:31:50;;;;;;;121.60;53.97;;;;;;;15.55;64.81;99271.91;4835732;29;20058;-66
2021/12/19 11:34:56;;;;;;;118.30;55.73;;;;;;;15.44;63.82;99266.25;4840030;29;20164;-67
2021/12/19 11:38:03;;;;;;;123.97;53.92;;;;;;;15.38;66.20;99252.69;4831438;29;20998;-66
2021/12/19 11:41:07;;;;;;;107.30;52.45;;;;;;;15.25;68.31;99247.97;4845715;29;20124;-68
2021/12/19 11:44:05;;;;;;;113.40;54.20;;;;;;;15.27;71.21;99255.69;4845375;29;20049;-70
2021/12/19 11:46:56;;;;;;;114.95;54.65;;;;;;;15.02;71.46;99260.16;4843639;29;20049;-67
2021/12/19 11:49:45;;;;;;;124.78;55.47;;;;;;;14.78;71.11;99252.41;4841715;29;20117;-66
2021/12/19 11:52:30;;;;;;;126.72;57.75;;;;;;;14.73;75.53;99256.09;4844320;29;20058;-69
2021/12/19 11:55:27;;;;;;;112.78;57.25;;;;;;;14.49;76.00;99258.69;4843625;29;20050;-65
2021/12/19 11:58:32;;;;;;;113.28;57.20;;;;;;;14.42;78.22;99269.34;4843604;29;20065;-67
2021/12/19 12:01:12;;;;;;;123.90;58.80;;;;;;;14.27;77.68;99259.50;4838248;29;20138;-66
2021/12/19 12:04:10;;;;;;;115.07;58.90;;;;;;;14.24;80.14;99254.41;4839550;29;20046;-65
2021/12/19 12:07:02;;;;;;;128.18;58.83;;;;;;;14.11;79.28;99260.03;4838287;29;20156;-66
2021/12/19 12:09:56;;;;;;;133.25;61.90;;;;;;;13.88;79.88;99256.56;4821043;29;20514;-66
2021/12/19 12:12:55;;;;;;;131.55;61.80;;;;;;;13.83;80.12;99256.69;4842448;29;20049;-69
2021/12/19 12:15:37;;;;;;;135.50;61.65;;;;;;;13.70;81.57;99261.44;4842356;29;20427;-66
2021/12/19 12:18:45;;;;;;;135.90;63.72;;;;;;;13.71;81.50;99257.97;4838618;29;20057;-64
2021/12/19 12:24:23;;;;;;;129.63;63.08;;;;;;;13.63;83.32;99253.94;4847244;29;20045;-69
2021/12/19 12:27:05;;;;;;;140.55;65.55;;;;;;;13.36;84.54;99264.28;4849958;29;20163;-70
2021/12/19 12:29:55;;;;;;;137.52;64.85;;;;;;;13.46;87.30;99257.06;4849545;29;20053;-69
2021/12/19 12:32:46;;;;;;;161.95;70.30;;;;;;;13.52;83.35;99254.28;4848431;29;20054;-70
2021/12/19 12:35:38;;;;;;;155.05;70.07;;;;;;;13.29;87.10;99246.41;4849411;29;20172;-71
2021/12/19 12:38:36;;;;;;;147.00;68.05;;;;;;;13.11;88.47;99246.94;4846835;29;25591;-71
2021/12/19 12:44:25;;;;;;;145.35;69.22;;;;;;;12.63;92.32;99240.63;4851820;29;20050;-68
2021/12/19 12:47:27;;;;;;;145.80;71.00;;;;;;;12.41;92.06;99244.72;4839917;29;20061;-66
2021/12/19 12:50:05;;;;;;;156.02;72.07;;;;;;;12.62;93.97;99236.34;4844253;29;20074;-63
2021/12/19 12:52:54;;;;;;;152.65;72.78;;;;;;;12.50;95.15;99236.72;4844037;29;20064;-66
2021/12/19 12:55:37;;;;;;;155.07;77.13;;;;;;;12.56;95.98;99240.84;4844463;29;20126;-66
2021/12/19 12:58:40;;;;;;;149.88;73.07;;;;;;;12.48;97.29;99253.16;4838547;29;20045;-65
2021/12/19 13:01:22;;;;;;;152.18;75.85;;;;;;;12.26;97.09;99256.34;4846615;29;20053;-67
2021/12/19 13:04:26;;;;;;;167.77;74.78;;;;;;;12.06;98.64;99268.09;4843616;29;20076;-67
2021/12/19 13:07:23;;;;;;;170.05;80.82;;;;;;;11.98;100.00;99267.44;4840743;29;20578;-65
2021/12/19 13:10:06;;;;;;;168.60;82.35;;;;;;;12.00;100.00;99274.28;4848390;29;20408;-65
2021/12/19 13:12:55;;;;;;;160.32;80.90;;;;;;;11.87;100.00;99285.81;4841338;29;20053;-65
2021/12/19 13:15:38;;;;;;;163.18;79.65;;;;;;;11.72;100.00;99284.44;4845204;29;20505;-64
2021/12/19 13:18:31;;;;;;;164.20;79.07;;;;;;;11.76;100.00;99280.91;4842994;29;20054;-64
2021/12/19 13:21:13;;;;;;;170.32;80.50;;;;;;;11.85;100.00;99275.53;4844462;29;20049;-65
2021/12/19 13:24:12;;;;;;;176.77;88.47;;;;;;;11.91;100.00;99268.50;4854631;29;20057;-64
2021/12/19 13:27:22;;;;;;;169.18;82.82;;;;;;;11.93;100.00;99271.88;4848000;29;20049;-64
2021/12/19 13:30:27;;;;;;;164.40;81.05;;;;;;;11.77;100.00;99281.75;4843474;29;20053;-64
2021/12/19 13:33:19;;;;;;;169.77;81.53;;;;;;;11.73;100.00;99286.09;4842495;29;20073;-64
2021/12/19 13:36:12;;;;;;;169.43;84.40;;;;;;;11.70;100.00;99278.47;4845396;29;20172;-64
2021/12/19 13:39:03;;;;;;;186.95;88.57;;;;;;;11.73;100.00;99274.97;4842674;29;20045;-64
2021/12/19 13:41:53;;;;;;;187.20;87.88;;;;;;;11.68;100.00;99290.53;4844825;29;20060;-64
2021/12/19 13:44:39;;;;;;;181.60;88.25;;;;;;;11.41;100.00;99293.81;4844634;29;20057;-65
2021/12/19 13:47:30;;;;;;;184.88;87.10;;;;;;;11.35;100.00;99304.25;4838643;29;20058;-65
2021/12/19 13:50:20;;;;;;;177.23;88.80;;;;;;;11.35;100.00;99312.84;4848077;29;20497;-64